createdAt,value
2018-11-01T05:58:31.641Z,77.66
2018-11-01T06:01:01.749Z,76.48
2018-11-01T06:03:30.734Z,75.98
2018-11-01T06:05:59.440Z,75.62
2018-11-01T06:08:31.873Z,74.75
2018-11-01T06:11:00.685Z,74.03
2018-11-01T06:13:29.469Z,73.26
2018-11-01T06:15:58.161Z,72.99
2018-11-01T06:18:26.870Z,72.75
2018-11-01T06:20:55.620Z,72.27
2018-11-01T06:23:24.313Z,71.61
2018-11-01T06:25:52.964Z,71.57
2018-11-01T06:28:21.731Z,71.27
2018-11-01T06:30:50.494Z,70.86
2018-11-01T06:33:19.213Z,70.65
2018-11-01T06:35:50.300Z,70.44
2018-11-01T06:38:18.997Z,70.39
2018-11-01T06:40:48.057Z,70.02
2018-11-01T06:43:16.714Z,69.56
2018-11-01T06:45:50.710Z,69.30
2018-11-01T06:48:19.501Z,69.04
2018-11-01T06:50:48.314Z,68.42
2018-11-01T06:53:17.052Z,68.75
2018-11-01T06:55:45.789Z,68.65
2018-11-01T06:58:14.556Z,68.46
2018-11-01T07:00:43.232Z,68.16
2018-11-01T07:03:11.973Z,68.41
2018-11-01T07:05:40.756Z,67.29
2018-11-01T07:08:09.421Z,67.19
2018-11-01T07:10:38.081Z,66.92
2018-11-01T07:13:06.880Z,66.59
2018-11-01T07:15:35.624Z,65.82
2018-11-01T07:18:04.548Z,65.32
2018-11-01T07:20:33.347Z,65.44
2018-11-01T07:23:02.044Z,65.38
2018-11-01T07:25:30.856Z,65.06
2018-11-01T07:27:59.587Z,64.83
2018-11-01T07:30:28.249Z,64.95
2018-11-01T07:32:56.935Z,64.55
2018-11-01T07:35:25.609Z,64.58
2018-11-01T07:37:54.321Z,64.30
2018-11-01T07:40:23.128Z,63.41
2018-11-01T07:42:51.859Z,63.71
2018-11-01T07:45:20.626Z,63.45
2018-11-01T07:47:49.440Z,62.94
2018-11-01T07:50:18.214Z,63.28
2018-11-01T07:52:47.080Z,63.34
2018-11-01T07:55:16.770Z,63.38
2018-11-01T07:57:45.501Z,63.17
2018-11-01T08:00:16.425Z,63.01
2018-11-01T08:02:46.103Z,62.75
2018-11-01T08:05:15.118Z,62.77
2018-11-01T08:07:43.892Z,62.78
2018-11-01T08:10:17.452Z,62.96
2018-11-01T08:12:46.920Z,63.03
2018-11-01T08:15:18.011Z,63.12
2018-11-01T08:17:46.777Z,63.36
2018-11-01T08:20:16.206Z,62.83
2018-11-01T08:22:44.778Z,62.25
2018-11-01T08:25:13.984Z,62.18
2018-11-01T08:27:43.234Z,61.79
2018-11-01T08:30:14.182Z,62.15
2018-11-01T08:32:43.004Z,62.25
2018-11-01T08:35:12.093Z,61.87
2018-11-01T08:37:41.928Z,61.50
2018-11-01T08:40:11.433Z,61.00
2018-11-01T08:42:40.532Z,61.14
2018-11-01T08:45:11.080Z,60.84
2018-11-01T08:47:39.939Z,60.52
2018-11-01T08:50:10.172Z,59.80
2018-11-01T08:52:39.283Z,59.22
2018-11-01T08:55:08.672Z,58.70
2018-11-01T08:57:37.649Z,58.30
2018-11-01T09:00:10.993Z,58.23
2018-11-01T09:02:40.031Z,57.82
2018-11-01T09:05:10.131Z,57.97
2018-11-01T09:07:39.426Z,57.11
2018-11-01T09:10:10.577Z,56.76
2018-11-01T09:12:39.408Z,56.69
2018-11-01T09:15:09.699Z,56.65
2018-11-01T09:17:38.494Z,55.99
2018-11-01T09:20:08.222Z,55.76
2018-11-01T09:22:36.943Z,55.81
2018-11-01T09:25:06.007Z,55.95
2018-11-01T09:27:34.790Z,55.42
2018-11-01T09:30:07.718Z,54.42
2018-11-01T09:32:36.420Z,52.56
2018-11-01T09:35:05.540Z,52.27
2018-11-01T09:37:34.308Z,51.42
2018-11-01T09:40:03.040Z,51.14
2018-11-01T09:42:31.757Z,50.73
2018-11-01T09:45:00.491Z,50.71
2018-11-01T09:47:29.729Z,50.12
2018-11-01T09:49:58.013Z,49.06
2018-11-01T09:52:26.853Z,48.39
2018-11-01T09:54:55.657Z,47.54
2018-11-01T09:57:24.361Z,47.22
2018-11-01T09:59:53.237Z,48.34
2018-11-01T10:02:21.926Z,50.09
2018-11-01T10:04:50.703Z,49.90
2018-11-01T10:07:19.769Z,50.53
2018-11-01T10:09:48.460Z,50.71
2018-11-01T10:12:17.331Z,50.67
2018-11-01T10:14:46.034Z,50.63
2018-11-01T10:17:15.083Z,51.66
2018-11-01T10:19:43.737Z,50.90
2018-11-01T10:22:12.517Z,51.75
2018-11-01T10:24:41.164Z,52.01
2018-11-01T10:27:19.513Z,51.45
2018-11-01T10:29:38.792Z,51.79
2018-11-01T10:32:07.612Z,52.10
2018-11-01T10:34:36.346Z,52.10
2018-11-01T10:37:05.054Z,51.15
2018-11-01T10:39:33.761Z,52.05
2018-11-01T10:42:02.464Z,52.09
2018-11-01T10:44:31.182Z,52.08
2018-11-01T10:46:59.856Z,51.90
2018-11-01T10:49:28.562Z,51.62
2018-11-01T10:51:57.286Z,51.23
2018-11-01T10:54:26.029Z,50.66
2018-11-01T10:56:54.741Z,51.15
2018-11-01T10:59:32.282Z,51.25
2018-11-01T11:02:06.097Z,50.44
2018-11-01T11:04:34.865Z,51.46
2018-11-01T11:07:03.534Z,50.53
2018-11-01T11:09:32.743Z,50.71
2018-11-01T11:12:01.513Z,50.01
2018-11-01T11:14:30.326Z,50.27
2018-11-01T11:16:59.901Z,50.19
2018-11-01T11:19:28.569Z,50.17
2018-11-01T11:21:57.236Z,50.37
2018-11-01T11:24:25.917Z,50.71
2018-11-01T11:29:35.977Z,50.33
2018-11-01T11:32:04.736Z,50.51
2018-11-01T11:34:33.460Z,50.61
2018-11-01T11:37:02.123Z,49.84
2018-11-01T11:39:30.835Z,49.67
2018-11-01T11:41:59.567Z,49.76
2018-11-01T11:44:28.270Z,50.20
2018-11-01T11:46:56.981Z,49.62
2018-11-01T11:49:25.620Z,50.48
2018-11-01T11:51:54.389Z,49.85
2018-11-01T11:54:23.144Z,49.09
2018-11-01T11:56:51.995Z,49.81
2018-11-01T11:59:20.717Z,49.94
2018-11-01T12:01:49.445Z,49.70
2018-11-01T12:04:18.178Z,49.99
2018-11-01T12:06:46.916Z,49.28
2018-11-01T12:09:15.715Z,48.84
2018-11-01T12:11:44.617Z,49.13
2018-11-01T12:14:13.443Z,48.63
2018-11-01T12:16:43.496Z,48.94
2018-11-01T12:19:12.183Z,48.21
2018-11-01T12:21:40.953Z,48.51
2018-11-01T12:24:09.656Z,48.95
2018-11-01T12:26:38.357Z,48.09
2018-11-01T12:29:07.248Z,47.95
2018-11-01T12:31:35.810Z,48.85
2018-11-01T12:34:05.221Z,48.35
2018-11-01T12:36:33.901Z,49.12
2018-11-01T12:39:02.590Z,49.45
2018-11-01T12:41:31.423Z,48.58
2018-11-01T12:44:00.147Z,48.89
2018-11-01T12:46:31.641Z,49.18
2018-11-01T12:49:00.397Z,50.04
2018-11-01T12:51:29.929Z,50.34
2018-11-01T12:53:59.087Z,49.62
2018-11-01T12:56:27.782Z,49.57
2018-11-01T12:58:56.539Z,50.62
2018-11-01T13:01:25.379Z,50.00
2018-11-01T13:03:54.060Z,50.15
2018-11-01T13:06:22.829Z,49.71
2018-11-01T13:08:51.561Z,50.11
2018-11-01T13:11:20.280Z,49.55
2018-11-01T13:13:49.096Z,48.53
2018-11-01T13:16:17.866Z,49.72
2018-11-01T13:18:46.649Z,49.65
2018-11-01T13:21:15.488Z,49.77
2018-11-01T13:23:44.246Z,49.32
2018-11-01T13:26:13.015Z,48.85
2018-11-01T13:28:41.702Z,49.45
2018-11-01T13:31:10.455Z,49.70
2018-11-01T13:33:39.179Z,49.64
2018-11-01T13:36:07.898Z,49.71
2018-11-01T13:38:36.705Z,49.84
2018-11-01T13:41:06.480Z,50.29
2018-11-01T13:43:34.762Z,49.69
2018-11-01T13:46:03.481Z,49.40
2018-11-01T13:48:32.326Z,50.44
2018-11-01T13:51:01.050Z,50.67
2018-11-01T13:53:29.765Z,49.90
2018-11-01T13:55:58.502Z,50.36
2018-11-01T13:58:27.195Z,50.54
2018-11-01T14:00:55.994Z,50.77
2018-11-01T14:03:24.750Z,50.29
2018-11-01T14:05:53.555Z,50.35
2018-11-01T14:08:22.230Z,50.71
2018-11-01T14:10:50.990Z,50.75
2018-11-01T14:13:19.771Z,50.65
2018-11-01T14:15:48.429Z,51.46
2018-11-01T14:18:17.230Z,51.73
2018-11-01T14:20:45.972Z,51.91
2018-11-01T14:23:14.662Z,51.79
2018-11-01T14:25:43.426Z,51.97
2018-11-01T14:28:12.133Z,51.51
2018-11-01T14:30:40.855Z,51.42
2018-11-01T14:33:09.851Z,52.36
2018-11-01T14:35:38.509Z,51.81
2018-11-01T14:38:07.195Z,53.08
2018-11-01T14:40:35.869Z,53.34
2018-11-01T14:43:04.788Z,52.65
2018-11-01T14:45:33.617Z,53.30
2018-11-01T14:48:02.345Z,53.85
2018-11-01T14:50:31.058Z,53.17
2018-11-01T14:53:00.748Z,53.60
2018-11-01T14:55:30.366Z,53.37
2018-11-01T14:57:59.250Z,54.00
2018-11-01T15:00:26.741Z,53.59
2018-11-01T15:02:55.771Z,54.03
2018-11-01T15:05:24.555Z,54.39
2018-11-01T15:07:53.241Z,54.78
2018-11-01T15:10:21.978Z,54.37
2018-11-01T15:12:51.087Z,54.83
2018-11-01T15:15:19.789Z,54.65
2018-11-01T15:17:50.447Z,54.19
2018-11-01T15:20:19.511Z,54.69
2018-11-01T15:22:48.269Z,54.19
2018-11-01T15:25:16.944Z,54.25
2018-11-01T15:27:45.735Z,54.60
2018-11-01T15:30:16.506Z,54.00
2018-11-01T15:32:45.281Z,53.75
2018-11-01T15:35:14.448Z,54.37
2018-11-01T15:37:43.345Z,54.15
2018-11-01T15:40:14.854Z,53.84
2018-11-01T15:42:44.204Z,54.25
2018-11-01T15:45:13.855Z,53.61
2018-11-01T15:47:43.080Z,53.65
2018-11-01T15:50:12.801Z,53.46
2018-11-01T15:52:41.622Z,53.32
2018-11-01T15:55:10.720Z,53.52
2018-11-01T15:57:39.493Z,54.05
2018-11-01T16:00:10.649Z,53.61
2018-11-01T16:02:40.742Z,53.64
2018-11-01T16:05:09.933Z,53.60
2018-11-01T16:07:38.734Z,53.62
2018-11-01T16:10:08.389Z,53.79
2018-11-01T16:12:37.334Z,53.36
2018-11-01T16:15:07.908Z,53.49
2018-11-01T16:17:36.638Z,53.66
2018-11-01T16:20:06.152Z,54.72
2018-11-01T16:22:34.870Z,54.03
2018-11-01T16:25:03.809Z,54.99
2018-11-01T16:27:33.905Z,54.79
2018-11-01T16:30:06.463Z,55.42
2018-11-01T16:32:35.155Z,54.93
2018-11-01T16:35:04.030Z,56.00
2018-11-01T16:37:32.807Z,55.29
2018-11-01T16:40:01.593Z,55.40
2018-11-01T16:42:30.588Z,55.36
2018-11-01T16:44:59.980Z,55.29
2018-11-01T16:47:28.642Z,55.45
2018-11-01T16:49:57.393Z,56.17
2018-11-01T16:52:26.137Z,55.52
2018-11-01T16:54:54.836Z,55.80
2018-11-01T16:57:23.562Z,55.89
2018-11-01T16:59:52.351Z,56.57
2018-11-01T17:02:21.158Z,56.76
2018-11-01T17:04:50.601Z,56.31
2018-11-01T17:07:19.535Z,57.10
2018-11-01T17:09:48.263Z,57.20
2018-11-01T17:12:17.053Z,56.93
2018-11-01T17:14:45.765Z,57.24
2018-11-01T17:17:14.428Z,58.64
2018-11-01T17:19:43.156Z,59.36
2018-11-01T17:22:11.949Z,59.42
2018-11-01T17:24:41.877Z,59.95
2018-11-01T17:27:10.580Z,60.42
2018-11-01T17:29:39.356Z,60.67
2018-11-01T17:32:08.032Z,60.65
2018-11-01T17:34:37.181Z,60.10
2018-11-01T17:37:06.169Z,60.96
2018-11-01T17:39:34.921Z,59.90
2018-11-01T17:42:03.663Z,59.06
2018-11-01T17:44:32.397Z,58.86
2018-11-01T17:47:01.196Z,58.92
2018-11-01T17:49:29.958Z,60.26
2018-11-01T17:51:58.677Z,60.01
2018-11-01T17:54:28.259Z,60.15
2018-11-01T17:56:57.837Z,60.01
2018-11-01T17:59:34.478Z,60.37
2018-11-01T18:02:04.659Z,59.43
2018-11-01T18:04:33.337Z,59.27
2018-11-01T18:07:02.087Z,58.95
2018-11-01T18:09:30.795Z,59.64
2018-11-01T18:11:59.920Z,59.61
2018-11-01T18:14:28.747Z,59.32
2018-11-01T18:16:57.434Z,58.72
2018-11-01T18:19:26.124Z,59.09
2018-11-01T18:21:54.983Z,59.08
2018-11-01T18:24:23.785Z,59.37
2018-11-01T18:26:52.476Z,59.04
2018-11-01T18:29:21.907Z,59.12
2018-11-01T18:31:50.620Z,59.19
2018-11-01T18:34:19.481Z,59.17
2018-11-01T18:36:48.161Z,59.72
2018-11-01T18:39:17.021Z,59.55
2018-11-01T18:41:45.785Z,59.17
2018-11-01T18:44:14.486Z,59.62
2018-11-01T18:46:43.331Z,59.61
2018-11-01T18:49:12.072Z,59.39
2018-11-01T18:51:40.768Z,59.69
2018-11-01T18:54:09.621Z,59.64
2018-11-01T18:56:38.440Z,59.95
2018-11-01T18:59:07.163Z,59.92
2018-11-01T19:01:36.013Z,59.50
2018-11-01T19:04:04.932Z,59.70
2018-11-01T19:13:20.834Z,59.98
2018-11-01T19:15:49.678Z,59.93
2018-11-01T19:18:18.376Z,59.35
2018-11-01T19:20:47.216Z,59.39
2018-11-01T19:23:16.006Z,59.22
2018-11-01T19:25:45.742Z,59.09
2018-11-01T19:28:14.538Z,59.43
2018-11-01T19:30:43.185Z,59.23
2018-11-01T19:33:11.941Z,59.63
2018-11-01T19:35:40.667Z,59.63
2018-11-01T19:38:09.399Z,59.96
2018-11-01T19:40:38.176Z,60.26
2018-11-01T19:43:06.826Z,60.28
2018-11-01T19:45:35.512Z,60.40
2018-11-01T19:48:04.309Z,59.96
2018-11-01T19:50:33.025Z,60.24
2018-11-01T19:53:01.714Z,60.16
2018-11-01T19:55:30.677Z,59.67
2018-11-01T19:57:59.393Z,59.90
2018-11-01T20:00:28.112Z,59.78
2018-11-01T20:02:56.843Z,59.31
2018-11-01T20:05:25.559Z,59.38
2018-11-01T20:07:54.296Z,59.18
2018-11-01T20:10:23.109Z,59.15
2018-11-01T20:12:51.789Z,59.12
2018-11-01T20:15:20.515Z,59.35
2018-11-01T20:17:49.228Z,58.79
2018-11-01T20:20:17.909Z,59.17
2018-11-01T20:22:46.763Z,59.38
2018-11-01T20:25:15.561Z,59.30
2018-11-01T20:27:44.319Z,59.44
2018-11-01T20:30:15.333Z,59.75
2018-11-01T20:32:47.076Z,59.36
2018-11-01T20:35:17.128Z,59.53
2018-11-01T20:37:45.904Z,59.52
2018-11-01T20:40:14.600Z,59.71
2018-11-01T20:42:43.810Z,59.43
2018-11-01T20:45:13.409Z,59.51
2018-11-01T20:47:42.161Z,59.63
2018-11-01T20:50:12.089Z,60.00
2018-11-01T20:52:40.800Z,60.52
2018-11-01T20:55:10.090Z,60.99
2018-11-01T20:57:39.288Z,61.05
2018-11-01T21:00:13.600Z,61.90
2018-11-01T21:02:42.404Z,62.09
2018-11-01T21:05:12.501Z,62.48
2018-11-01T21:07:41.160Z,63.25
2018-11-01T21:10:10.799Z,63.53
2018-11-01T21:12:39.914Z,63.81
2018-11-01T21:15:10.522Z,64.18
2018-11-01T21:17:39.322Z,64.61
2018-11-01T21:20:08.374Z,64.91
2018-11-01T21:22:37.102Z,65.24
2018-11-01T21:25:06.314Z,65.77
2018-11-01T21:27:34.970Z,65.96
2018-11-01T21:30:07.896Z,66.14
2018-11-01T21:32:36.609Z,66.17
2018-11-01T21:35:06.085Z,66.61
2018-11-01T21:37:34.633Z,67.00
2018-11-01T21:40:03.379Z,67.65
2018-11-01T21:42:32.105Z,67.70
2018-11-01T21:45:00.869Z,68.52
2018-11-01T21:47:29.575Z,69.21
2018-11-01T21:49:58.308Z,69.89
2018-11-01T21:52:27.001Z,70.00
2018-11-01T21:54:55.779Z,69.99
2018-11-01T21:57:24.509Z,70.67
2018-11-01T21:59:53.268Z,70.52
2018-11-01T22:02:22.024Z,70.81
2018-11-01T22:04:50.844Z,70.56
2018-11-01T22:07:19.956Z,71.27
2018-11-01T22:09:48.698Z,71.56
2018-11-01T22:12:17.368Z,71.75
2018-11-01T22:14:46.075Z,71.95
2018-11-01T22:17:15.089Z,71.91
2018-11-01T22:19:43.871Z,71.94
2018-11-01T22:22:12.557Z,72.09
2018-11-01T22:24:41.264Z,72.06
2018-11-01T22:27:09.975Z,72.63
2018-11-01T22:29:38.649Z,72.70
2018-11-01T22:32:07.425Z,72.99
2018-11-01T22:34:36.091Z,72.50
2018-11-01T22:37:04.789Z,72.92
2018-11-01T22:39:33.497Z,72.92
2018-11-01T22:42:02.438Z,72.96
2018-11-01T22:44:31.102Z,73.00
2018-11-01T22:46:59.810Z,73.09
2018-11-01T22:49:28.573Z,73.05
2018-11-01T22:51:57.335Z,72.81
2018-11-01T22:54:26.014Z,73.01
2018-11-01T22:56:54.757Z,73.43
2018-11-01T22:59:23.469Z,73.42
2018-11-01T23:01:52.228Z,73.16
2018-11-01T23:04:21.013Z,73.76
2018-11-01T23:06:49.961Z,73.61
2018-11-01T23:09:18.727Z,73.20
2018-11-01T23:11:47.485Z,73.90
2018-11-01T23:14:16.177Z,73.73
2018-11-01T23:16:45.562Z,73.84
2018-11-01T23:19:14.482Z,73.57
2018-11-01T23:21:43.164Z,73.60
2018-11-01T23:24:11.868Z,73.76
2018-11-01T23:26:40.517Z,73.69
2018-11-01T23:29:09.781Z,73.67
2018-11-01T23:31:38.531Z,74.20
2018-11-01T23:34:07.316Z,74.02
2018-11-01T23:36:41.161Z,73.58
2018-11-01T23:39:15.109Z,73.89
2018-11-01T23:41:48.942Z,73.83
2018-11-01T23:44:22.894Z,73.76
2018-11-01T23:46:56.859Z,73.75
2018-11-01T23:49:29.288Z,73.95
2018-11-01T23:52:03.153Z,73.49
2018-11-01T23:54:31.842Z,73.48
2018-11-01T23:57:00.536Z,73.07
2018-11-01T23:59:29.210Z,73.35
